createdAt,value
2018-05-13T00:00:27.593Z,17.57
2018-05-13T00:02:55.057Z,19.67
2018-05-13T00:05:23.353Z,20.07
2018-05-13T00:07:50.737Z,19.33
2018-05-13T00:10:18.241Z,20.67
2018-05-13T00:12:45.708Z,18.93
2018-05-13T00:15:13.945Z,23.13
2018-05-13T00:17:41.408Z,22.10
2018-05-13T00:20:08.876Z,20.83
2018-05-13T00:22:36.433Z,20.87
2018-05-13T00:25:03.887Z,21.00
2018-05-13T00:27:31.357Z,19.67
2018-05-13T00:29:58.908Z,18.90
2018-05-13T00:32:26.464Z,19.47
2018-05-13T00:34:54.025Z,18.63
2018-05-13T00:37:21.480Z,21.20
2018-05-13T00:39:49.036Z,17.70
2018-05-13T00:42:16.604Z,19.07
2018-05-13T00:44:44.056Z,18.40
2018-05-13T00:47:11.524Z,18.17
2018-05-13T00:49:38.990Z,19.87
2018-05-13T00:52:07.215Z,19.53
2018-05-13T00:54:46.464Z,17.90
2018-05-13T00:57:13.920Z,20.20
2018-05-13T00:59:41.480Z,19.87
2018-05-13T01:02:08.861Z,20.30
2018-05-13T01:04:37.096Z,19.33
2018-05-13T01:07:04.580Z,20.63
2018-05-13T01:09:32.142Z,20.87
2018-05-13T01:11:59.608Z,21.43
2018-05-13T01:14:27.161Z,20.13
2018-05-13T01:16:54.712Z,21.03
2018-05-13T01:19:22.175Z,21.87
2018-05-13T01:21:49.629Z,19.93
2018-05-13T01:24:17.175Z,21.20
2018-05-13T01:26:44.644Z,21.30
2018-05-13T01:29:12.197Z,20.03
2018-05-13T01:31:39.665Z,21.37
2018-05-13T01:34:07.218Z,22.77
2018-05-13T01:36:34.760Z,22.33
2018-05-13T01:39:02.227Z,22.67
2018-05-13T01:41:29.684Z,21.93
2018-05-13T01:43:57.157Z,24.13
2018-05-13T01:46:24.661Z,23.27
2018-05-13T01:48:52.104Z,23.60
2018-05-13T01:51:19.613Z,23.23
2018-05-13T01:53:47.880Z,23.93
2018-05-13T01:56:15.447Z,23.50
2018-05-13T01:58:42.908Z,25.20
2018-05-13T02:01:10.465Z,22.77
2018-05-13T02:03:37.928Z,24.97
2018-05-13T02:06:05.393Z,25.67
2018-05-13T02:08:32.861Z,25.33
2018-05-13T02:11:01.111Z,26.20
2018-05-13T02:13:28.581Z,24.50
2018-05-13T02:15:56.128Z,27.20
2018-05-13T02:18:23.592Z,23.70
2018-05-13T02:20:51.819Z,26.07
2018-05-13T02:23:19.283Z,26.73
2018-05-13T02:25:46.775Z,24.67
2018-05-13T02:28:14.244Z,25.47
2018-05-13T02:30:41.784Z,26.93
2018-05-13T02:33:09.237Z,28.17
2018-05-13T02:35:36.700Z,26.27
2018-05-13T02:38:04.156Z,27.87
2018-05-13T02:40:31.633Z,27.40
2018-05-13T02:42:59.089Z,28.27
2018-05-13T02:45:27.308Z,28.30
2018-05-13T02:47:54.782Z,26.40
2018-05-13T02:50:22.236Z,27.60
2018-05-13T02:52:49.709Z,27.50
2018-05-13T02:55:17.159Z,26.90
2018-05-13T02:57:44.629Z,28.97
2018-05-13T03:00:12.096Z,27.43
2018-05-13T03:02:39.552Z,29.27
2018-05-13T03:05:07.110Z,28.47
2018-05-13T03:07:35.381Z,30.00
2018-05-13T03:10:03.625Z,28.93
2018-05-13T03:12:31.108Z,28.40
2018-05-13T03:14:58.560Z,28.73
2018-05-13T03:17:26.032Z,28.87
2018-05-13T03:19:53.502Z,27.40
2018-05-13T03:22:21.756Z,27.27
2018-05-13T03:24:50.031Z,30.53
2018-05-13T03:27:19.000Z,30.00
2018-05-13T03:29:46.468Z,29.67
2018-05-13T03:36:50.406Z,28.30
2018-05-13T03:39:17.870Z,30.37
2018-05-13T03:41:45.440Z,30.13
2018-05-13T03:44:12.904Z,32.17
2018-05-13T03:46:41.128Z,29.03
2018-05-13T03:49:08.625Z,31.70
2018-05-13T03:51:36.849Z,28.83
2018-05-13T03:54:04.329Z,29.83
2018-05-13T03:56:33.424Z,30.83
2018-05-13T03:59:00.986Z,30.50
2018-05-13T04:01:28.396Z,30.37
2018-05-13T04:03:56.744Z,32.60
2018-05-13T04:06:24.200Z,32.13
2018-05-13T04:09:03.467Z,31.30
2018-05-13T04:11:42.829Z,31.63
2018-05-13T04:14:22.352Z,33.60
2018-05-13T04:16:49.803Z,30.73
2018-05-13T04:19:17.255Z,33.83
2018-05-13T04:21:44.775Z,31.00
2018-05-13T04:24:12.235Z,32.43
2018-05-13T04:26:39.699Z,37.03
2018-05-13T04:29:07.248Z,36.13
2018-05-13T04:31:34.709Z,41.50
2018-05-13T04:34:02.167Z,44.73
2018-05-13T04:36:29.629Z,47.10
2018-05-13T04:38:57.096Z,48.20
2018-05-13T04:41:25.335Z,47.90
2018-05-13T04:43:52.784Z,48.90
2018-05-13T04:46:20.248Z,51.10
2018-05-13T04:48:47.709Z,47.03
2018-05-13T04:51:15.281Z,45.90
2018-05-13T04:53:42.769Z,49.37
2018-05-13T04:56:10.998Z,50.57
2018-05-13T04:58:38.567Z,49.93
2018-05-13T05:01:06.021Z,51.23
2018-05-13T05:03:33.475Z,50.47
2018-05-13T05:06:00.954Z,51.40
2018-05-13T05:08:28.419Z,50.03
2018-05-13T05:10:56.635Z,53.10
2018-05-13T05:13:24.118Z,51.87
2018-05-13T05:15:51.580Z,45.10
2018-05-13T05:18:19.143Z,40.67
2018-05-13T05:20:46.709Z,32.77
2018-05-13T05:23:14.164Z,31.27
2018-05-13T05:25:41.637Z,28.20
2018-05-13T05:28:09.896Z,27.10
2018-05-13T05:30:37.360Z,29.50
2018-05-13T05:33:04.819Z,28.00
2018-05-13T05:35:32.288Z,28.20
2018-05-13T05:38:00.507Z,27.43
2018-05-13T05:40:27.973Z,27.70
2018-05-13T05:42:55.436Z,26.00
2018-05-13T05:45:22.904Z,26.63
2018-05-13T05:47:50.460Z,25.03
2018-05-13T05:50:17.919Z,24.33
2018-05-13T05:52:45.388Z,25.63
2018-05-13T05:55:12.940Z,25.37
2018-05-13T05:57:40.395Z,24.40
2018-05-13T06:00:07.908Z,25.50
2018-05-13T06:02:35.363Z,23.00
2018-05-13T06:05:02.823Z,23.67
2018-05-13T06:07:30.320Z,25.50
2018-05-13T06:09:57.779Z,26.00
2018-05-13T06:12:25.344Z,25.30
2018-05-13T06:14:52.797Z,27.03
2018-05-13T06:17:20.277Z,25.87
2018-05-13T06:19:48.511Z,24.77
2018-05-13T06:22:15.985Z,24.23
2018-05-13T06:24:43.443Z,25.63
2018-05-13T06:27:11.010Z,25.30
2018-05-13T06:29:38.484Z,24.67
2018-05-13T06:32:06.722Z,21.97
2018-05-13T06:34:34.172Z,23.47
2018-05-13T06:37:01.633Z,23.70
2018-05-13T06:39:29.208Z,24.23
2018-05-13T06:41:56.763Z,22.87
2018-05-13T06:44:25.819Z,23.33
2018-05-13T06:46:53.324Z,23.83
2018-05-13T06:49:20.798Z,22.73
2018-05-13T06:51:49.028Z,23.13
2018-05-13T06:54:16.512Z,24.60
2018-05-13T06:56:43.980Z,25.37
2018-05-13T06:59:12.221Z,23.70
2018-05-13T07:01:39.696Z,24.37
2018-05-13T07:04:07.161Z,25.27
2018-05-13T07:06:34.619Z,26.20
2018-05-13T07:09:02.096Z,25.10
2018-05-13T07:11:30.326Z,25.97
2018-05-13T07:13:57.808Z,24.57
2018-05-13T07:16:25.343Z,24.33
2018-05-13T07:18:52.817Z,27.40
2018-05-13T07:21:20.284Z,28.17
2018-05-13T07:23:50.184Z,27.62
2018-05-13T07:26:17.639Z,27.40
2018-05-13T07:28:45.200Z,28.00
2018-05-13T07:31:12.756Z,29.50
2018-05-13T07:33:40.992Z,27.40
2018-05-13T07:36:08.437Z,30.00
2018-05-13T07:38:35.908Z,29.17
2018-05-13T07:41:03.373Z,29.53
2018-05-13T07:43:30.906Z,28.17
2018-05-13T07:45:58.302Z,30.73
2018-05-13T07:48:25.759Z,28.70
2018-05-13T07:50:53.297Z,29.97
2018-05-13T07:53:20.810Z,32.67
2018-05-13T07:55:49.052Z,33.27
2018-05-13T07:58:16.510Z,31.33
2018-05-13T08:00:43.965Z,30.57
2018-05-13T08:03:11.445Z,33.00
2018-05-13T08:05:38.907Z,31.17
2018-05-13T08:08:06.375Z,32.90
2018-05-13T08:10:34.597Z,32.00
2018-05-13T08:13:02.069Z,31.60
2018-05-13T08:15:29.526Z,27.77
2018-05-13T08:17:56.984Z,29.03
2018-05-13T08:20:24.566Z,30.73
2018-05-13T08:22:51.907Z,29.37
2018-05-13T08:25:19.464Z,28.00
2018-05-13T08:27:46.934Z,26.87
2018-05-13T08:30:14.402Z,27.10
2018-05-13T08:32:42.620Z,24.50
2018-05-13T08:35:10.114Z,27.13
2018-05-13T08:37:37.579Z,26.37
2018-05-13T08:40:05.025Z,24.70
2018-05-13T08:42:32.493Z,25.10
2018-05-13T08:45:00.042Z,25.00
2018-05-13T08:47:27.620Z,27.57
2018-05-13T08:49:55.861Z,26.90
2018-05-13T08:52:23.333Z,25.37
2018-05-13T08:54:50.812Z,25.00
2018-05-13T08:57:19.030Z,22.70
2018-05-13T08:59:47.256Z,24.43
2018-05-13T09:02:14.720Z,23.30
2018-05-13T09:04:42.960Z,22.43
2018-05-13T09:07:10.425Z,22.83
2018-05-13T09:09:37.892Z,22.43
2018-05-13T09:12:05.355Z,23.83
2018-05-13T09:14:32.804Z,22.97
2018-05-13T09:17:00.281Z,26.60
2018-05-13T09:19:28.537Z,25.20
2018-05-13T09:21:56.018Z,25.50
2018-05-13T09:24:24.261Z,26.93
2018-05-13T09:29:26.548Z,29.27
2018-05-13T09:31:54.106Z,28.40
2018-05-13T09:34:22.333Z,29.07
2018-05-13T09:36:49.795Z,27.30
2018-05-13T09:39:18.113Z,27.93
2018-05-13T09:41:45.670Z,26.57
2018-05-13T09:44:13.137Z,28.40
2018-05-13T09:46:40.600Z,27.40
2018-05-13T09:49:08.072Z,27.77
2018-05-13T09:51:36.304Z,27.00
2018-05-13T09:54:03.774Z,28.93
2018-05-13T09:56:32.008Z,27.70
2018-05-13T09:59:00.541Z,29.17
2018-05-13T10:01:28.091Z,32.53
2018-05-13T10:03:57.097Z,29.90
2018-05-13T10:06:25.838Z,28.40
2018-05-13T10:08:53.330Z,31.13
2018-05-13T10:11:20.851Z,31.73
2018-05-13T10:13:48.329Z,27.83
2018-05-13T10:16:15.792Z,27.40
2018-05-13T10:18:43.260Z,27.70
2018-05-13T10:21:10.734Z,29.20
2018-05-13T10:23:39.009Z,28.37
2018-05-13T10:26:07.229Z,27.90
2018-05-13T10:28:34.684Z,29.43
2018-05-13T10:31:02.160Z,27.97
2018-05-13T10:33:29.628Z,29.47
2018-05-13T10:35:57.097Z,28.43
2018-05-13T10:38:24.549Z,28.73
2018-05-13T10:40:52.025Z,28.27
2018-05-13T10:43:20.273Z,24.90
2018-05-13T10:45:47.736Z,26.47
2018-05-13T10:48:16.014Z,26.10
2018-05-13T10:50:43.468Z,25.97
2018-05-13T10:53:10.949Z,24.00
2018-05-13T10:55:39.179Z,25.20
2018-05-13T10:58:06.670Z,22.50
2018-05-13T11:00:34.133Z,24.00
2018-05-13T11:03:01.607Z,21.73
2018-05-13T11:05:29.830Z,22.57
2018-05-13T11:07:57.286Z,22.90
2018-05-13T11:10:24.761Z,22.30
2018-05-13T11:12:52.228Z,22.53
2018-05-13T11:15:19.689Z,21.03
2018-05-13T11:17:47.912Z,19.50
2018-05-13T11:20:15.395Z,21.07
2018-05-13T11:22:42.901Z,20.67
2018-05-13T11:25:11.128Z,18.83
2018-05-13T11:27:38.603Z,21.37
2018-05-13T11:30:06.061Z,19.77
2018-05-13T11:32:33.528Z,18.93
2018-05-13T11:35:01.767Z,19.67
2018-05-13T11:37:29.252Z,19.00
2018-05-13T11:39:57.547Z,19.30
2018-05-13T11:42:25.792Z,17.97
2018-05-13T11:44:53.349Z,19.23
2018-05-13T11:47:20.829Z,19.73
2018-05-13T11:49:49.075Z,16.73
2018-05-13T11:52:16.558Z,17.97
2018-05-13T11:54:44.002Z,16.77
2018-05-13T11:57:11.469Z,17.20
2018-05-13T11:59:38.932Z,15.07
2018-05-13T12:02:07.186Z,15.00
2018-05-13T12:04:34.681Z,15.17
2018-05-13T12:07:02.902Z,15.20
2018-05-13T12:09:30.362Z,17.10
2018-05-13T12:11:57.845Z,17.47
2018-05-13T12:14:26.074Z,14.63
2018-05-13T12:16:53.545Z,15.70
2018-05-13T12:19:21.033Z,16.10
2018-05-13T12:21:48.576Z,15.07
2018-05-13T12:24:16.043Z,14.70
2018-05-13T12:26:43.516Z,15.80
2018-05-13T12:29:11.746Z,13.97
2018-05-13T12:31:39.330Z,17.37
2018-05-13T12:34:06.889Z,16.60
2018-05-13T12:36:34.444Z,16.70
2018-05-13T12:39:01.909Z,16.90
2018-05-13T12:41:29.373Z,16.17
2018-05-13T12:43:56.833Z,15.87
2018-05-13T12:46:25.074Z,14.70
2018-05-13T12:48:52.550Z,15.97
2018-05-13T12:51:20.016Z,16.37
2018-05-13T12:53:47.516Z,15.57
2018-05-13T12:56:15.027Z,16.10
2018-05-13T12:58:42.437Z,16.37
2018-05-13T13:01:09.926Z,16.00
2018-05-13T13:03:37.384Z,16.20
2018-05-13T13:06:04.876Z,18.07
2018-05-13T13:08:33.125Z,17.30
2018-05-13T13:11:00.605Z,17.90
2018-05-13T13:13:28.841Z,15.53
2018-05-13T13:15:56.317Z,17.17
2018-05-13T13:18:24.623Z,16.13
2018-05-13T13:20:52.105Z,17.33
2018-05-13T13:23:19.560Z,17.90
2018-05-13T13:25:47.051Z,18.00
2018-05-13T13:28:14.502Z,18.13
2018-05-13T13:30:42.048Z,16.70
2018-05-13T13:33:09.504Z,18.30
2018-05-13T13:35:36.968Z,17.70
2018-05-13T13:38:04.445Z,18.73
2018-05-13T13:40:32.022Z,17.80
2018-05-13T13:43:00.282Z,18.73
2018-05-13T13:45:27.740Z,19.50
2018-05-13T13:47:55.193Z,19.03
2018-05-13T13:50:22.672Z,18.20
2018-05-13T13:52:50.900Z,20.03
2018-05-13T13:55:18.438Z,19.87
2018-05-13T13:57:45.848Z,19.77
2018-05-13T14:00:13.316Z,20.13
2018-05-13T14:02:41.545Z,20.10
2018-05-13T14:05:09.032Z,22.70
2018-05-13T14:07:36.495Z,23.73
2018-05-13T14:10:04.048Z,23.00
2018-05-13T14:12:31.504Z,22.07
2018-05-13T14:14:58.984Z,21.60
2018-05-13T14:17:27.225Z,21.70
2018-05-13T14:19:54.715Z,23.93
2018-05-13T14:22:22.168Z,25.20
2018-05-13T14:24:50.408Z,26.53
2018-05-13T14:27:18.146Z,26.50
2018-05-13T14:29:45.602Z,24.00
2018-05-13T14:32:13.084Z,24.17
2018-05-13T14:34:40.614Z,26.10
2018-05-13T14:37:08.077Z,25.60
2018-05-13T14:39:35.557Z,24.87
2018-05-13T14:42:03.028Z,26.87
2018-05-13T14:44:30.504Z,26.57
2018-05-13T14:46:58.729Z,26.60
2018-05-13T14:49:26.241Z,26.87
2018-05-13T14:51:54.489Z,30.73
2018-05-13T14:54:21.953Z,29.17
2018-05-13T14:56:50.196Z,30.23
2018-05-13T14:59:17.652Z,29.87
2018-05-13T15:01:45.132Z,31.17
2018-05-13T15:04:12.686Z,29.80
2018-05-13T15:06:40.244Z,32.83
2018-05-13T15:09:07.748Z,30.30
2018-05-13T15:11:35.273Z,32.20
2018-05-13T15:14:02.736Z,31.20
2018-05-13T15:16:30.209Z,34.47
2018-05-13T15:18:57.664Z,29.00
2018-05-13T15:21:25.897Z,29.13
2018-05-13T15:23:53.352Z,30.03
2018-05-13T15:26:20.829Z,30.80
2018-05-13T15:28:48.300Z,28.00
2018-05-13T15:31:16.517Z,35.80
2018-05-13T15:33:43.997Z,32.97
2018-05-13T15:36:11.466Z,33.37
2018-05-13T15:38:38.944Z,34.07
2018-05-13T15:41:07.168Z,33.10
2018-05-13T15:43:34.644Z,33.43
2018-05-13T15:46:02.104Z,34.20
2018-05-13T15:48:29.584Z,33.20
2018-05-13T15:50:57.070Z,35.10
2018-05-13T15:53:24.538Z,33.20
2018-05-13T15:55:52.023Z,31.73
2018-05-13T15:58:19.485Z,33.80
2018-05-13T16:00:46.956Z,35.87
2018-05-13T16:03:16.052Z,32.77
2018-05-13T16:05:43.520Z,29.70
2018-05-13T16:08:11.807Z,31.17
2018-05-13T16:10:40.045Z,30.27
2018-05-13T16:13:07.510Z,27.43
2018-05-13T16:15:35.000Z,30.23
2018-05-13T16:18:03.230Z,28.30
2018-05-13T16:20:31.460Z,27.97
2018-05-13T16:22:59.720Z,28.30
2018-05-13T16:25:27.184Z,27.90
2018-05-13T16:27:55.424Z,26.47
2018-05-13T16:30:22.922Z,26.97
2018-05-13T16:32:50.385Z,30.10
2018-05-13T16:35:18.626Z,30.83
2018-05-13T16:37:46.082Z,28.43
2018-05-13T16:40:13.544Z,31.10
2018-05-13T16:42:41.045Z,30.70
2018-05-13T16:45:08.549Z,30.27
2018-05-13T16:47:36.032Z,30.90
2018-05-13T16:50:04.248Z,32.07
2018-05-13T16:52:31.720Z,30.73
2018-05-13T16:54:59.177Z,31.40
2018-05-13T16:57:26.637Z,32.03
2018-05-13T16:59:54.117Z,32.27
2018-05-13T17:02:23.126Z,30.80
2018-05-13T17:04:50.669Z,30.77
2018-05-13T17:07:18.220Z,30.17
2018-05-13T17:09:45.685Z,31.63
2018-05-13T17:12:13.140Z,34.80
2018-05-13T17:14:40.690Z,32.47
2018-05-13T17:17:08.177Z,32.67
2018-05-13T17:19:35.628Z,33.23
2018-05-13T17:22:03.872Z,31.27
2018-05-13T17:24:31.395Z,34.23
2018-05-13T17:26:58.853Z,35.30
2018-05-13T17:29:26.313Z,33.60
2018-05-13T17:31:53.772Z,34.07
2018-05-13T17:34:21.236Z,33.90
2018-05-13T17:36:48.729Z,35.10
2018-05-13T17:39:17.065Z,35.93
2018-05-13T17:41:44.495Z,34.17
2018-05-13T17:44:12.704Z,35.50
2018-05-13T17:46:40.194Z,35.30
2018-05-13T17:49:07.643Z,35.87
2018-05-13T17:51:35.107Z,35.07
2018-05-13T17:54:02.573Z,35.07
2018-05-13T17:56:31.753Z,34.07
2018-05-13T17:58:59.232Z,35.00
2018-05-13T18:01:27.489Z,35.30
2018-05-13T18:03:54.942Z,34.33
2018-05-13T18:06:22.429Z,33.90
2018-05-13T18:08:50.655Z,35.07
2018-05-13T18:11:18.118Z,33.37
2018-05-13T18:13:45.621Z,31.57
2018-05-13T18:16:13.840Z,36.00
2018-05-13T18:18:41.297Z,34.60
2018-05-13T18:21:08.769Z,34.03
2018-05-13T18:23:36.225Z,32.77
2018-05-13T18:26:03.681Z,32.00
2018-05-13T18:28:31.151Z,36.57
2018-05-13T18:30:58.662Z,32.90
2018-05-13T18:33:26.085Z,33.53
2018-05-13T18:35:54.307Z,31.53
2018-05-13T18:38:21.780Z,35.90
2018-05-13T18:40:50.072Z,34.27
2018-05-13T18:43:17.525Z,31.33
2018-05-13T18:45:44.994Z,31.07
2018-05-13T18:48:13.245Z,31.33
2018-05-13T18:50:40.812Z,31.77
2018-05-13T18:53:08.305Z,32.70
2018-05-13T18:55:36.549Z,30.33
2018-05-13T18:58:04.004Z,29.87
2018-05-13T19:00:31.461Z,30.47
2018-05-13T19:02:59.016Z,29.33
2018-05-13T19:05:26.480Z,31.10
2018-05-13T19:07:53.934Z,31.53
2018-05-13T19:10:21.412Z,27.70
2018-05-13T19:12:49.640Z,30.80
2018-05-13T19:15:17.103Z,27.33
2018-05-13T19:17:44.580Z,29.43
2018-05-13T19:20:12.031Z,31.03
2018-05-13T19:22:39.504Z,28.87
2018-05-13T19:25:07.019Z,30.33
2018-05-13T19:27:34.408Z,30.00
2018-05-13T19:30:01.945Z,31.87
2018-05-13T19:32:30.148Z,32.30
2018-05-13T19:34:57.620Z,33.00
2018-05-13T19:37:25.849Z,36.23
2018-05-13T19:39:53.307Z,36.83
2018-05-13T19:42:20.771Z,37.30
2018-05-13T19:44:48.240Z,32.93
2018-05-13T19:47:15.712Z,33.73
2018-05-13T19:49:43.948Z,36.00
2018-05-13T19:52:11.433Z,35.70
2018-05-13T19:54:38.896Z,35.77
2018-05-13T19:57:06.352Z,38.50
2018-05-13T19:59:33.828Z,37.90
2018-05-13T20:02:02.052Z,34.37
2018-05-13T20:04:29.539Z,35.20
2018-05-13T20:06:57.009Z,35.77
2018-05-13T20:09:25.277Z,35.60
2018-05-13T20:11:52.701Z,34.00
2018-05-13T20:14:20.177Z,35.93
2018-05-13T20:16:47.692Z,34.50
2018-05-13T20:19:15.156Z,33.70
2018-05-13T20:21:42.612Z,36.80
2018-05-13T20:24:10.088Z,35.90
2018-05-13T20:26:37.556Z,29.97
2018-05-13T20:29:05.030Z,32.97
2018-05-13T20:31:32.533Z,33.97
2018-05-13T20:33:59.995Z,31.00
2018-05-13T20:36:27.469Z,30.70
2018-05-13T20:38:54.949Z,33.00
2018-05-13T20:41:22.410Z,30.53
2018-05-13T20:43:49.860Z,30.13
2018-05-13T20:46:17.413Z,30.50
2018-05-13T20:48:44.872Z,30.67
2018-05-13T20:51:12.408Z,30.67
2018-05-13T20:53:39.795Z,28.60
2018-05-13T20:56:07.269Z,27.53
2018-05-13T20:58:35.508Z,28.23
2018-05-13T21:01:02.977Z,32.60
2018-05-13T21:03:30.541Z,32.57
2018-05-13T21:05:58.000Z,29.47
2018-05-13T21:08:25.470Z,31.50
2018-05-13T21:10:53.688Z,31.40
2018-05-13T21:13:21.164Z,33.13
2018-05-13T21:15:48.636Z,33.40
2018-05-13T21:18:16.100Z,34.43
2018-05-13T21:20:43.568Z,34.10
2018-05-13T21:23:11.024Z,34.87
2018-05-13T21:25:38.484Z,31.17
2018-05-13T21:28:06.709Z,31.83
2018-05-13T21:30:34.177Z,30.27
2018-05-13T21:33:01.637Z,32.90
2018-05-13T21:35:29.100Z,33.20
2018-05-13T21:37:56.669Z,30.87
2018-05-13T21:40:25.642Z,32.63
2018-05-13T21:42:53.103Z,33.70
2018-05-13T21:45:20.560Z,33.60
2018-05-13T21:47:48.037Z,35.20
2018-05-13T21:50:15.497Z,32.37
2018-05-13T21:52:42.984Z,34.30
2018-05-13T21:55:10.455Z,32.33
2018-05-13T21:57:37.920Z,32.37
2018-05-13T22:00:05.381Z,35.10
2018-05-13T22:02:32.874Z,33.03
2018-05-13T22:05:00.340Z,34.53
2018-05-13T22:07:27.816Z,31.63
2018-05-13T22:09:56.050Z,31.00
2018-05-13T22:12:23.512Z,29.30
2018-05-13T22:14:50.979Z,30.40
2018-05-13T22:17:18.449Z,30.97
2018-05-13T22:19:45.904Z,30.27
2018-05-13T22:22:13.360Z,33.77
2018-05-13T22:24:41.585Z,33.90
2018-05-13T22:27:09.048Z,33.50
2018-05-13T22:29:36.518Z,30.80
2018-05-13T22:32:03.976Z,33.63
2018-05-13T22:34:31.433Z,34.43
2018-05-13T22:36:58.884Z,34.33
2018-05-13T22:39:26.356Z,33.40
2018-05-13T22:41:53.816Z,38.40
2018-05-13T22:44:21.280Z,35.00
2018-05-13T22:46:48.744Z,34.47
2018-05-13T22:49:16.197Z,34.03
2018-05-13T22:51:43.665Z,32.80
2018-05-13T22:54:11.882Z,37.60
2018-05-13T22:56:39.369Z,34.60
2018-05-13T22:59:06.832Z,35.60
2018-05-13T23:01:34.292Z,34.40
2018-05-13T23:04:01.756Z,32.67
2018-05-13T23:06:30.912Z,34.33
2018-05-13T23:08:58.404Z,36.40
2018-05-13T23:11:25.860Z,34.70
2018-05-13T23:13:53.323Z,35.30
2018-05-13T23:16:20.776Z,31.80
2018-05-13T23:18:48.237Z,33.67
2018-05-13T23:21:15.693Z,33.97
2018-05-13T23:23:43.185Z,37.53
2018-05-13T23:26:10.642Z,33.27
2018-05-13T23:28:38.116Z,36.93
2018-05-13T23:31:05.575Z,38.60
2018-05-13T23:33:33.043Z,37.13
2018-05-13T23:36:00.506Z,38.93
2018-05-13T23:38:27.956Z,39.07
2018-05-13T23:40:55.409Z,40.67
2018-05-13T23:43:22.987Z,42.40
2018-05-13T23:45:50.453Z,42.83
2018-05-13T23:48:17.917Z,49.37
2018-05-13T23:50:45.385Z,46.30
2018-05-13T23:53:13.625Z,47.10
2018-05-13T23:55:41.089Z,44.60
2018-05-13T23:58:08.561Z,45.97
